Time;durP1;ratioP1;P1;durP2;ratioP2;P2;SDS_P1;SDS_P2;PMS_P1;PMS_P2;Temp;Humidity;BMP_temperature;BMP_pressure;BME280_temperature;BME280_humidity;BME280_pressure;Samples;Min_cycle;Max_cycle;Signal;HPM_P1;HPM_P2
2021/07/15 00:01:09;;;;;;;6.03;5.73;;;21.70;99.90;;;;;;5070841;28;20211;-71
2021/07/15 00:03:36;;;;;;;6.60;6.20;;;21.80;99.90;;;;;;5070853;28;20392;-71
2021/07/15 00:06:04;;;;;;;6.65;6.20;;;21.80;99.90;;;;;;5070560;28;20273;-72
2021/07/15 00:08:33;;;;;;;6.20;5.90;;;21.90;99.90;;;;;;5070648;28;21121;-72
2021/07/15 00:11:01;;;;;;;6.93;6.43;;;21.80;99.90;;;;;;5070072;28;20616;-71
2021/07/15 00:13:28;;;;;;;6.60;6.20;;;21.80;99.90;;;;;;5070781;28;20219;-71
2021/07/15 00:15:57;;;;;;;6.78;6.38;;;21.90;99.90;;;;;;5070616;28;20483;-72
2021/07/15 00:18:26;;;;;;;6.30;5.97;;;21.90;99.90;;;;;;5070856;28;20204;-72
2021/07/15 00:20:54;;;;;;;6.72;6.22;;;21.90;99.90;;;;;;5070455;28;20264;-72
2021/07/15 00:23:23;;;;;;;6.63;6.23;;;21.90;99.90;;;;;;5070644;28;20207;-72
2021/07/15 00:25:49;;;;;;;6.72;6.32;;;21.90;99.90;;;;;;5070166;28;20697;-72
2021/07/15 00:28:17;;;;;;;6.22;5.82;;;21.90;99.90;;;;;;5070518;28;20273;-71
2021/07/15 00:30:44;;;;;;;6.97;6.28;;;21.90;99.90;;;;;;5070494;28;20211;-72
2021/07/15 00:33:11;;;;;;;6.95;6.35;;;21.90;99.90;;;;;;5070194;28;20211;-71
2021/07/15 00:35:38;;;;;;;6.40;5.83;;;21.90;99.90;;;;;;5070250;28;20231;-71
2021/07/15 00:38:06;;;;;;;6.32;6.03;;;21.80;99.90;;;;;;5070253;28;20257;-71
2021/07/15 00:40:36;;;;;;;6.25;5.88;;;21.80;99.90;;;;;;5070183;28;20301;-71
2021/07/15 00:43:02;;;;;;;6.60;6.07;;;21.80;99.90;;;;;;5069450;28;20257;-71
2021/07/15 00:45:30;;;;;;;6.30;5.90;;;21.70;99.90;;;;;;5069988;28;20716;-71
2021/07/15 00:47:58;;;;;;;6.18;5.82;;;21.70;99.90;;;;;;5070083;28;20258;-72
2021/07/15 00:50:25;;;;;;;6.37;5.97;;;21.70;99.90;;;;;;5070341;28;20203;-71
2021/07/15 00:52:53;;;;;;;6.00;5.60;;;21.50;99.90;;;;;;5069875;28;20246;-71
2021/07/15 00:55:25;;;;;;;6.73;6.30;;;21.50;99.90;;;;;;5070051;28;20210;-72
2021/07/15 00:57:54;;;;;;;6.80;6.30;;;21.40;99.90;;;;;;5069945;28;20544;-72
2021/07/15 01:00:22;;;;;;;6.35;6.05;;;21.50;99.90;;;;;;5069841;28;20208;-72
2021/07/15 01:02:50;;;;;;;6.38;5.88;;;21.50;99.90;;;;;;5069998;28;20296;-72
2021/07/15 01:05:20;;;;;;;6.57;6.18;;;21.50;99.90;;;;;;5069645;28;20248;-72
2021/07/15 01:07:46;;;;;;;6.15;5.78;;;21.40;99.90;;;;;;5069819;28;20296;-72
2021/07/15 01:10:17;;;;;;;6.40;5.88;;;21.40;99.90;;;;;;5069104;28;20239;-72
2021/07/15 01:13:10;;;;;;;6.93;6.27;;;21.40;99.90;;;;;;5069660;28;20188;-72
2021/07/15 01:15:54;;;;;;;6.23;5.80;;;21.40;99.90;;;;;;5051632;28;20958;-72
2021/07/15 01:18:32;;;;;;;6.03;5.63;;;21.40;99.90;;;;;;5049844;28;20293;-72
2021/07/15 01:21:20;;;;;;;5.90;5.43;;;21.40;99.90;;;;;;5049480;28;20196;-72
2021/07/15 01:24:10;;;;;;;5.97;5.53;;;21.40;99.90;;;;;;5049095;28;20197;-73
2021/07/15 01:27:03;;;;;;;5.83;5.53;;;21.30;99.90;;;;;;5041685;28;20269;-73
2021/07/15 01:29:58;;;;;;;6.30;5.80;;;21.30;99.90;;;;;;5049084;28;20710;-72
2021/07/15 01:32:30;;;;;;;6.47;5.53;;;21.30;99.90;;;;;;5049404;28;20269;-72
2021/07/15 01:35:01;;;;;;;6.30;5.70;;;21.30;99.90;;;;;;5049300;28;20270;-72
2021/07/15 01:37:30;;;;;;;6.20;5.70;;;21.20;99.90;;;;;;5049454;28;20196;-72
2021/07/15 01:39:58;;;;;;;5.93;5.43;;;21.20;99.90;;;;;;5048988;28;20327;-72
2021/07/15 01:42:27;;;;;;;5.70;5.20;;;21.20;99.90;;;;;;5049181;28;20747;-72
2021/07/15 01:44:55;;;;;;;6.20;5.60;;;21.20;99.90;;;;;;5049020;28;20243;-73
2021/07/15 01:47:25;;;;;;;6.37;5.97;;;21.10;99.90;;;;;;5049061;28;20702;-73
2021/07/15 01:49:57;;;;;;;6.13;5.83;;;21.10;99.90;;;;;;5048930;28;20654;-72
2021/07/15 01:52:24;;;;;;;5.97;5.60;;;21.10;99.90;;;;;;5049096;28;20289;-73
2021/07/15 01:54:52;;;;;;;5.87;5.47;;;21.10;99.90;;;;;;5048843;28;20609;-74
2021/07/15 01:57:21;;;;;;;5.67;5.27;;;21.10;99.90;;;;;;5048949;28;20210;-73
2021/07/15 01:59:49;;;;;;;6.10;5.70;;;21.10;99.90;;;;;;5048865;28;20204;-72
2021/07/15 02:02:18;;;;;;;5.90;5.53;;;21.10;99.90;;;;;;5048774;28;20208;-73
2021/07/15 02:04:46;;;;;;;6.03;5.63;;;21.00;99.90;;;;;;5048792;28;20235;-73
2021/07/15 02:07:13;;;;;;;5.27;4.87;;;21.00;99.90;;;;;;5048826;28;20254;-73
2021/07/15 02:09:41;;;;;;;6.93;5.00;;;21.00;99.90;;;;;;5048497;28;20255;-73
2021/07/15 02:12:08;;;;;;;5.93;5.30;;;21.00;99.90;;;;;;5048454;28;20258;-71
2021/07/15 02:14:35;;;;;;;4.93;4.63;;;20.90;99.90;;;;;;5048618;28;20212;-71
2021/07/15 02:17:03;;;;;;;5.10;4.77;;;20.90;99.90;;;;;;5048494;28;20200;-71
2021/07/15 02:19:30;;;;;;;4.77;4.47;;;20.80;99.90;;;;;;5048283;28;20661;-71
2021/07/15 02:21:59;;;;;;;4.93;4.43;;;20.90;99.90;;;;;;5048466;28;20243;-70
2021/07/15 02:24:28;;;;;;;4.73;4.53;;;20.90;99.90;;;;;;5048562;28;20263;-70
2021/07/15 02:26:57;;;;;;;5.50;5.10;;;20.90;99.90;;;;;;5048450;28;20204;-71
2021/07/15 02:29:24;;;;;;;4.90;4.40;;;20.80;99.90;;;;;;5048628;28;20211;-70
2021/07/15 02:31:55;;;;;;;5.27;4.90;;;20.80;99.90;;;;;;5048584;28;20212;-72
2021/07/15 02:34:24;;;;;;;5.03;4.63;;;20.80;99.90;;;;;;5052513;28;20618;-70
2021/07/15 02:36:52;;;;;;;4.43;4.23;;;20.80;99.90;;;;;;5068050;28;20204;-70
2021/07/15 02:39:20;;;;;;;4.30;4.10;;;20.80;99.90;;;;;;5067791;28;20223;-72
2021/07/15 02:41:47;;;;;;;3.67;3.43;;;20.80;99.90;;;;;;5068065;28;20230;-71
2021/07/15 02:44:14;;;;;;;4.23;4.03;;;20.80;99.90;;;;;;5067841;28;20197;-71
2021/07/15 02:46:41;;;;;;;5.63;3.83;;;20.80;99.90;;;;;;5067892;28;20256;-72
2021/07/15 02:49:07;;;;;;;4.63;3.80;;;20.80;99.90;;;;;;5067922;28;20670;-71
2021/07/15 02:51:34;;;;;;;4.07;3.63;;;20.80;99.90;;;;;;5067838;28;20728;-71
2021/07/15 02:54:02;;;;;;;4.03;3.73;;;20.80;99.90;;;;;;5064990;28;20307;-72
2021/07/15 02:56:43;;;;;;;4.77;3.60;;;20.80;99.90;;;;;;5066056;28;20241;-72
2021/07/15 02:59:18;;;;;;;3.83;3.63;;;20.80;99.90;;;;;;5066034;28;20195;-72
2021/07/15 03:01:49;;;;;;;4.20;3.90;;;20.80;99.90;;;;;;5066136;28;20191;-72
2021/07/15 03:04:23;;;;;;;4.00;3.70;;;20.80;99.90;;;;;;5065668;28;20264;-72
2021/07/15 03:06:51;;;;;;;3.63;3.43;;;20.90;99.90;;;;;;5067394;28;20202;-73
2021/07/15 03:09:25;;;;;;;4.17;3.97;;;20.90;99.90;;;;;;5070089;28;20292;-71
2021/07/15 03:12:00;;;;;;;3.70;3.50;;;20.90;99.90;;;;;;5070406;28;20264;-71
2021/07/15 03:14:30;;;;;;;3.97;3.77;;;20.90;99.90;;;;;;5069983;28;20235;-71
2021/07/15 03:16:57;;;;;;;4.20;3.90;;;20.80;99.90;;;;;;5069775;28;20235;-69
2021/07/15 03:19:26;;;;;;;4.63;4.30;;;20.90;99.90;;;;;;5069888;28;20207;-71
2021/07/15 03:21:53;;;;;;;4.03;3.83;;;20.80;99.90;;;;;;5068914;28;20677;-71
2021/07/15 03:24:22;;;;;;;4.10;3.90;;;20.90;99.90;;;;;;5068586;28;20597;-71
2021/07/15 03:26:49;;;;;;;4.37;4.07;;;20.90;99.90;;;;;;5066814;28;20196;-71
2021/07/15 03:29:18;;;;;;;5.50;4.10;;;20.80;99.90;;;;;;5062362;28;20548;-73
2021/07/15 03:31:45;;;;;;;3.83;3.60;;;20.80;99.90;;;;;;5051540;28;20281;-73
2021/07/15 03:34:12;;;;;;;4.47;4.10;;;20.70;99.90;;;;;;5050037;28;20254;-73
2021/07/15 03:36:41;;;;;;;4.33;3.80;;;20.70;99.90;;;;;;5051133;28;20204;-73
2021/07/15 03:39:08;;;;;;;4.10;3.90;;;20.70;99.90;;;;;;5051143;28;20232;-73
2021/07/15 03:41:36;;;;;;;5.87;3.80;;;20.70;99.90;;;;;;5051449;28;20270;-73
2021/07/15 03:44:03;;;;;;;3.90;3.70;;;20.70;99.90;;;;;;5050985;28;20203;-73
2021/07/15 03:46:32;;;;;;;3.90;3.70;;;20.70;99.90;;;;;;5051170;28;20231;-73
2021/07/15 03:48:59;;;;;;;4.17;3.67;;;20.70;99.90;;;;;;5051380;28;20253;-73
2021/07/15 03:51:27;;;;;;;4.03;3.83;;;20.70;99.90;;;;;;5051326;28;20382;-73
2021/07/15 03:53:54;;;;;;;3.93;3.67;;;20.70;99.90;;;;;;5051296;28;20262;-73
2021/07/15 03:56:21;;;;;;;3.60;3.40;;;20.70;99.90;;;;;;5051086;28;20243;-73
2021/07/15 03:58:49;;;;;;;4.00;3.70;;;20.70;99.90;;;;;;5050877;28;20830;-73
2021/07/15 04:01:17;;;;;;;4.03;3.73;;;20.60;99.90;;;;;;5050933;28;20246;-73
2021/07/15 04:03:48;;;;;;;3.87;3.67;;;20.60;99.90;;;;;;5050980;28;20596;-73
2021/07/15 04:06:17;;;;;;;5.93;3.83;;;20.70;99.90;;;;;;5050799;28;20289;-73
2021/07/15 04:08:44;;;;;;;3.93;3.70;;;20.70;99.90;;;;;;5050805;28;20279;-73
2021/07/15 04:11:15;;;;;;;4.40;4.03;;;20.70;99.90;;;;;;5050756;28;20208;-73
2021/07/15 04:13:43;;;;;;;4.10;3.80;;;20.70;99.90;;;;;;5050693;28;20192;-73
2021/07/15 04:16:23;;;;;;;3.60;3.40;;;20.60;99.90;;;;;;5050548;28;20219;-73
2021/07/15 04:18:55;;;;;;;4.43;3.70;;;20.60;99.90;;;;;;5049655;28;20196;-73
2021/07/15 04:21:22;;;;;;;3.97;3.70;;;20.60;99.90;;;;;;5050847;28;20205;-73
2021/07/15 04:23:51;;;;;;;4.23;3.60;;;20.60;99.90;;;;;;5050551;28;20208;-73
2021/07/15 04:26:19;;;;;;;3.90;3.70;;;20.60;99.90;;;;;;5050194;28;20322;-73
2021/07/15 04:28:47;;;;;;;3.70;3.50;;;20.70;99.90;;;;;;5050209;28;20208;-73
2021/07/15 04:31:38;;;;;;;4.97;3.50;;;20.70;99.90;;;;;;5050560;28;20216;-73
2021/07/15 04:34:10;;;;;;;4.07;3.77;;;20.70;99.90;;;;;;5050312;28;20192;-73
2021/07/15 04:36:38;;;;;;;3.97;3.60;;;20.70;99.90;;;;;;5050432;28;20227;-73
2021/07/15 04:39:05;;;;;;;3.97;3.60;;;20.70;99.90;;;;;;5050104;28;20228;-73
2021/07/15 04:41:32;;;;;;;4.17;3.80;;;20.80;99.90;;;;;;5050426;28;20243;-73
2021/07/15 04:43:59;;;;;;;3.67;3.47;;;20.80;99.90;;;;;;5050311;28;20223;-73
2021/07/15 04:46:27;;;;;;;3.70;3.40;;;20.80;99.90;;;;;;5050479;28;20231;-74
2021/07/15 04:48:54;;;;;;;4.63;3.13;;;20.80;99.90;;;;;;5050274;28;20265;-73
2021/07/15 04:51:23;;;;;;;3.40;3.10;;;20.80;99.90;;;;;;5050117;28;20612;-73
2021/07/15 04:53:50;;;;;;;3.60;3.30;;;20.70;99.90;;;;;;5050043;28;20254;-73
2021/07/15 04:56:17;;;;;;;3.70;3.40;;;20.60;99.90;;;;;;5049823;28;20266;-73
2021/07/15 04:58:47;;;;;;;4.07;3.10;;;20.60;99.90;;;;;;5050139;28;20200;-73
2021/07/15 05:01:14;;;;;;;3.40;3.10;;;20.70;99.90;;;;;;5049631;28;20588;-73
2021/07/15 05:03:41;;;;;;;2.93;2.80;;;20.70;99.90;;;;;;5049826;28;20228;-73
2021/07/15 05:06:09;;;;;;;4.23;3.20;;;20.80;99.90;;;;;;5049710;28;20235;-73
2021/07/15 05:08:39;;;;;;;3.20;3.00;;;20.80;99.90;;;;;;5049520;28;20236;-73
2021/07/15 05:11:07;;;;;;;3.00;2.90;;;20.90;99.90;;;;;;5049576;28;20204;-73
2021/07/15 05:13:34;;;;;;;2.90;2.70;;;20.90;99.90;;;;;;5049964;28;20236;-73
2021/07/15 05:16:01;;;;;;;2.97;2.80;;;21.00;99.90;;;;;;5049637;28;20613;-73
2021/07/15 05:18:27;;;;;;;2.50;2.40;;;21.00;99.90;;;;;;5049631;28;20200;-73
2021/07/15 05:20:54;;;;;;;3.07;2.70;;;21.00;99.90;;;;;;5049473;28;20239;-73
2021/07/15 05:23:21;;;;;;;5.47;2.63;;;21.00;99.90;;;;;;5049576;28;21095;-73
2021/07/15 05:25:50;;;;;;;3.47;2.43;;;21.00;99.90;;;;;;5049159;28;20709;-73
2021/07/15 05:28:17;;;;;;;2.80;2.60;;;21.10;99.90;;;;;;5050435;28;20210;-73
2021/07/15 05:30:44;;;;;;;2.60;2.40;;;21.10;99.90;;;;;;5066771;28;20223;-73
2021/07/15 05:33:11;;;;;;;2.83;2.47;;;21.20;99.90;;;;;;5068894;28;20207;-73
2021/07/15 05:35:39;;;;;;;3.93;2.70;;;21.20;99.90;;;;;;5069310;28;20562;-73
2021/07/15 05:38:06;;;;;;;2.88;2.70;;;21.20;99.90;;;;;;5069030;28;20207;-73
2021/07/15 05:40:33;;;;;;;2.60;2.50;;;21.20;99.90;;;;;;5069201;28;20220;-73
2021/07/15 05:43:01;;;;;;;3.07;2.70;;;21.20;99.90;;;;;;5069159;28;20280;-73
2021/07/15 05:45:28;;;;;;;2.63;2.43;;;21.20;99.90;;;;;;5069221;28;20639;-73
2021/07/15 05:47:55;;;;;;;2.47;2.37;;;21.30;99.90;;;;;;5068891;28;20690;-73
2021/07/15 05:50:23;;;;;;;2.47;2.33;;;21.40;99.90;;;;;;5068965;28;20264;-73
2021/07/15 05:52:49;;;;;;;2.70;2.50;;;21.40;99.90;;;;;;5069130;28;20207;-73
2021/07/15 05:55:16;;;;;;;2.70;2.47;;;21.30;99.90;;;;;;5068890;28;20261;-73
2021/07/15 05:57:43;;;;;;;3.43;2.60;;;21.20;99.90;;;;;;5069252;28;20276;-73
2021/07/15 06:00:13;;;;;;;2.70;2.50;;;21.30;99.90;;;;;;5068757;28;20203;-73
2021/07/15 06:02:40;;;;;;;2.87;2.70;;;21.20;99.90;;;;;;5068498;28;20227;-73
2021/07/15 06:05:08;;;;;;;6.30;2.63;;;21.20;99.90;;;;;;5068223;28;20224;-73
2021/07/15 06:07:36;;;;;;;2.63;2.53;;;21.30;99.90;;;;;;5068559;28;20207;-73
2021/07/15 06:10:03;;;;;;;2.20;2.10;;;21.40;99.90;;;;;;5068201;28;21039;-73
2021/07/15 06:12:30;;;;;;;3.47;2.23;;;21.40;99.90;;;;;;5068531;28;20277;-73
2021/07/15 06:14:56;;;;;;;2.77;2.57;;;21.50;99.90;;;;;;5068551;28;20203;-73
2021/07/15 06:17:24;;;;;;;3.60;2.37;;;21.50;99.90;;;;;;5068577;28;20269;-73
2021/07/15 06:19:52;;;;;;;2.67;2.47;;;21.50;99.90;;;;;;5068542;28;20211;-73
2021/07/15 06:22:20;;;;;;;4.60;2.50;;;21.50;99.90;;;;;;5068046;28;20724;-73
2021/07/15 06:24:46;;;;;;;2.57;2.47;;;21.60;99.90;;;;;;5068535;28;20215;-73
2021/07/15 06:27:13;;;;;;;2.72;2.20;;;21.50;99.90;;;;;;5068889;28;20323;-73
2021/07/15 06:29:40;;;;;;;2.40;2.30;;;21.60;99.90;;;;;;5068439;28;20208;-73
2021/07/15 06:32:10;;;;;;;2.50;2.30;;;21.60;99.90;;;;;;5068586;28;20257;-73
2021/07/15 06:34:40;;;;;;;2.22;2.13;;;21.70;99.90;;;;;;5068390;28;20235;-73
2021/07/15 06:37:09;;;;;;;2.65;2.45;;;21.80;99.90;;;;;;5068530;28;20572;-73
2021/07/15 06:39:37;;;;;;;2.75;2.00;;;21.80;99.90;;;;;;5068292;28;20250;-73
2021/07/15 06:42:05;;;;;;;2.22;2.10;;;21.80;99.90;;;;;;5067724;28;20574;-73
2021/07/15 06:44:31;;;;;;;2.70;2.20;;;21.70;99.90;;;;;;5068226;28;20273;-73
2021/07/15 06:46:59;;;;;;;2.20;2.10;;;21.60;99.90;;;;;;5068368;28;20304;-73
2021/07/15 06:49:26;;;;;;;2.55;1.90;;;21.60;99.90;;;;;;5068087;28;20239;-73
2021/07/15 06:51:54;;;;;;;2.38;2.00;;;21.50;99.90;;;;;;5067957;28;20699;-73
2021/07/15 06:54:21;;;;;;;2.30;2.10;;;21.40;99.90;;;;;;5068377;28;20542;-73
2021/07/15 06:56:47;;;;;;;2.47;2.20;;;21.30;99.90;;;;;;5067935;28;20250;-73
2021/07/15 06:59:14;;;;;;;2.83;1.90;;;21.40;99.90;;;;;;5067888;28;20204;-73
2021/07/15 07:01:41;;;;;;;2.53;2.10;;;21.60;99.90;;;;;;5068203;28;20590;-73
2021/07/15 07:04:10;;;;;;;2.10;2.00;;;21.70;99.90;;;;;;5068094;28;20259;-73
2021/07/15 07:06:37;;;;;;;3.13;1.90;;;21.70;99.90;;;;;;5067849;28;20235;-73
2021/07/15 07:09:05;;;;;;;3.03;1.80;;;21.90;99.90;;;;;;5067684;28;20354;-73
2021/07/15 07:11:32;;;;;;;2.15;2.05;;;21.80;99.90;;;;;;5067981;28;20288;-73
2021/07/15 07:13:58;;;;;;;1.88;1.77;;;21.70;99.90;;;;;;5068166;28;20199;-73
2021/07/15 07:16:25;;;;;;;4.07;2.42;;;21.70;99.90;;;;;;5067910;28;20210;-72
2021/07/15 07:18:52;;;;;;;5.43;2.33;;;21.90;99.90;;;;;;5067905;28;20647;-73
2021/07/15 07:21:18;;;;;;;3.10;2.53;;;21.90;99.90;;;;;;5067449;28;20669;-73
2021/07/15 07:23:45;;;;;;;3.60;2.28;;;21.80;99.90;;;;;;5067684;28;20204;-73
2021/07/15 07:26:13;;;;;;;3.70;2.10;;;21.90;99.90;;;;;;5067348;28;20227;-73
2021/07/15 07:28:39;;;;;;;2.80;1.90;;;22.00;99.90;;;;;;5067897;28;21053;-73
2021/07/15 07:31:06;;;;;;;3.80;2.10;;;22.00;99.90;;;;;;5067900;28;20203;-74
2021/07/15 07:33:33;;;;;;;2.13;1.98;;;22.10;99.90;;;;;;5067555;28;20722;-73
2021/07/15 07:36:02;;;;;;;2.85;1.90;;;22.10;99.90;;;;;;5067812;28;20279;-73
2021/07/15 07:38:29;;;;;;;3.10;2.03;;;22.20;99.90;;;;;;5067484;28;21085;-73
2021/07/15 07:40:55;;;;;;;1.98;1.88;;;22.30;99.90;;;;;;5067455;28;20229;-73
2021/07/15 07:43:23;;;;;;;1.85;1.75;;;22.20;99.90;;;;;;5067495;28;20257;-73
2021/07/15 07:45:50;;;;;;;1.90;1.80;;;22.10;99.90;;;;;;5067553;28;20678;-73
2021/07/15 07:48:17;;;;;;;2.63;1.60;;;22.20;99.90;;;;;;5067583;28;20195;-73
2021/07/15 07:50:43;;;;;;;1.70;1.60;;;22.20;99.90;;;;;;5067653;28;20211;-73
2021/07/15 07:53:10;;;;;;;2.33;1.60;;;22.10;99.90;;;;;;5069479;28;20219;-73
2021/07/15 07:55:37;;;;;;;20.08;2.70;;;22.10;99.90;;;;;;5071200;28;20211;-73
2021/07/15 07:58:04;;;;;;;1.50;1.50;;;22.20;99.90;;;;;;5071365;28;20287;-73
2021/07/15 08:00:32;;;;;;;1.80;1.70;;;22.30;99.90;;;;;;5071006;28;20242;-73
2021/07/15 08:02:58;;;;;;;1.90;1.80;;;22.40;99.90;;;;;;5070923;28;20249;-73
2021/07/15 08:05:25;;;;;;;1.67;1.58;;;22.50;99.90;;;;;;5070876;28;20257;-73
2021/07/15 08:07:52;;;;;;;2.70;1.77;;;22.50;99.90;;;;;;5070819;28;20235;-73
2021/07/15 08:10:20;;;;;;;3.38;1.60;;;22.50;99.90;;;;;;5070505;28;20238;-73
2021/07/15 08:12:47;;;;;;;1.50;1.40;;;22.60;99.90;;;;;;5070917;28;20203;-73
2021/07/15 08:15:15;;;;;;;1.70;1.60;;;22.50;99.90;;;;;;5070406;28;20255;-73
2021/07/15 08:17:44;;;;;;;1.50;1.40;;;22.40;99.90;;;;;;5070998;28;20211;-73
2021/07/15 08:20:12;;;;;;;4.47;1.70;;;22.40;99.90;;;;;;5070936;28;21137;-73
2021/07/15 08:22:39;;;;;;;1.52;1.42;;;22.30;99.90;;;;;;5070877;28;20298;-73
2021/07/15 08:25:07;;;;;;;2.28;1.50;;;22.40;99.90;;;;;;5070821;28;20248;-73
2021/07/15 08:27:34;;;;;;;1.70;1.60;;;22.40;99.90;;;;;;5070521;28;20288;-73
2021/07/15 08:30:01;;;;;;;3.80;1.83;;;22.60;99.90;;;;;;5070411;28;20670;-73
2021/07/15 08:32:28;;;;;;;1.77;1.67;;;22.70;99.90;;;;;;5070427;28;20219;-73
2021/07/15 08:34:56;;;;;;;1.55;1.45;;;22.70;99.90;;;;;;5069958;28;20643;-73
2021/07/15 08:37:22;;;;;;;1.58;1.40;;;22.80;99.90;;;;;;5070377;28;20265;-73
2021/07/15 08:39:49;;;;;;;1.50;1.42;;;22.80;99.90;;;;;;5070411;28;20285;-74
2021/07/15 08:42:19;;;;;;;1.90;1.60;;;22.70;99.90;;;;;;5070281;28;20231;-73
2021/07/15 08:44:46;;;;;;;1.33;1.27;;;22.80;99.90;;;;;;5070326;28;20214;-73
2021/07/15 08:47:15;;;;;;;1.40;1.30;;;23.00;99.90;;;;;;5069872;28;20693;-74
2021/07/15 08:49:42;;;;;;;1.65;1.50;;;23.10;99.90;;;;;;5070102;28;20738;-73
2021/07/15 08:52:14;;;;;;;1.30;1.30;;;23.20;99.90;;;;;;5070327;28;20237;-73
2021/07/15 08:54:53;;;;;;;2.03;1.23;;;23.30;99.90;;;;;;5070101;28;20417;-73
2021/07/15 08:57:19;;;;;;;1.60;1.15;;;23.40;99.90;;;;;;5069748;28;20703;-73
2021/07/15 08:59:47;;;;;;;4.15;1.10;;;23.50;99.90;;;;;;5070213;28;20214;-73
2021/07/15 09:02:18;;;;;;;4.13;1.25;;;23.60;99.90;;;;;;5069679;28;21051;-73
2021/07/15 09:04:45;;;;;;;3.35;1.30;;;23.60;99.90;;;;;;5069300;28;20647;-73
2021/07/15 09:07:14;;;;;;;1.00;1.00;;;23.70;99.90;;;;;;5069850;28;20262;-73
2021/07/15 09:09:41;;;;;;;1.67;1.20;;;23.80;99.90;;;;;;5069304;28;20239;-73
2021/07/15 09:12:08;;;;;;;1.33;1.33;;;23.90;99.90;;;;;;5069740;28;20253;-73
2021/07/15 09:14:44;;;;;;;1.20;1.20;;;24.00;99.90;;;;;;5069431;28;20731;-73
2021/07/15 09:17:11;;;;;;;1.52;1.42;;;24.10;99.90;;;;;;5069679;28;20261;-73
2021/07/15 09:19:40;;;;;;;1.60;1.60;;;24.10;99.90;;;;;;5069471;28;20211;-73
2021/07/15 09:22:09;;;;;;;1.95;1.13;;;24.30;99.90;;;;;;5069707;28;20205;-73
2021/07/15 09:24:39;;;;;;;1.92;1.17;;;24.30;99.90;;;;;;5069389;28;20677;-74
2021/07/15 09:27:17;;;;;;;1.27;1.17;;;24.30;99.90;;;;;;5069373;28;20289;-73
2021/07/15 09:29:45;;;;;;;3.65;1.27;;;24.30;99.90;;;;;;5069540;28;20373;-73
2021/07/15 09:32:15;;;;;;;1.35;1.25;;;24.30;99.90;;;;;;5069301;28;20207;-73
2021/07/15 09:34:42;;;;;;;1.30;1.20;;;24.40;99.90;;;;;;5068988;28;20665;-73
2021/07/15 09:37:12;;;;;;;4.32;1.20;;;24.40;99.90;;;;;;5069388;28;20720;-73
2021/07/15 09:39:45;;;;;;;1.17;1.17;;;24.30;99.90;;;;;;5069051;28;20227;-73
2021/07/15 09:42:15;;;;;;;1.83;1.13;;;24.40;99.90;;;;;;5069360;28;20198;-73
2021/07/15 09:44:45;;;;;;;1.27;1.27;;;24.50;99.90;;;;;;5069345;28;20223;-73
2021/07/15 09:47:33;;;;;;;1.10;1.10;;;24.60;99.90;;;;;;5068966;28;20230;-73
2021/07/15 09:50:01;;;;;;;1.40;1.30;;;24.60;99.90;;;;;;5069040;28;20188;-73
2021/07/15 09:52:27;;;;;;;1.95;1.10;;;24.70;99.90;;;;;;5068885;28;20269;-73
2021/07/15 09:55:19;;;;;;;1.40;1.30;;;24.80;99.90;;;;;;5068902;28;20273;-73
2021/07/15 09:57:46;;;;;;;1.33;1.23;;;24.90;99.90;;;;;;5068911;28;20403;-73
2021/07/15 10:00:14;;;;;;;1.20;1.20;;;24.70;99.90;;;;;;5068339;28;20590;-73
2021/07/15 10:02:42;;;;;;;1.80;1.20;;;24.70;99.90;;;;;;5068698;28;20211;-73
2021/07/15 10:05:13;;;;;;;1.70;1.35;;;24.80;99.90;;;;;;5068770;28;20215;-73
2021/07/15 10:07:41;;;;;;;1.77;1.17;;;24.80;99.90;;;;;;5068707;28;20219;-73
2021/07/15 10:10:20;;;;;;;1.65;1.15;;;24.90;99.90;;;;;;5068325;28;20231;-73
2021/07/15 10:12:47;;;;;;;1.70;1.27;;;24.90;99.90;;;;;;5068798;28;20260;-73
2021/07/15 10:15:15;;;;;;;1.75;1.45;;;25.00;99.90;;;;;;5068719;28;20277;-74
2021/07/15 10:17:43;;;;;;;1.70;1.35;;;25.10;99.90;;;;;;5067753;28;20205;-73
2021/07/15 10:20:11;;;;;;;1.50;1.40;;;25.20;99.90;;;;;;5068713;28;20207;-73
2021/07/15 10:22:39;;;;;;;4.90;1.42;;;25.30;99.90;;;;;;5068418;28;20203;-73
2021/07/15 10:25:07;;;;;;;2.13;1.30;;;25.50;99.90;;;;;;5068501;28;20204;-73
2021/07/15 10:27:37;;;;;;;1.35;1.25;;;25.50;99.90;;;;;;5067547;28;20227;-74
2021/07/15 10:30:05;;;;;;;1.50;1.50;;;25.60;99.90;;;;;;5068445;28;20203;-73
2021/07/15 10:32:35;;;;;;;1.45;1.35;;;25.60;99.90;;;;;;5068101;28;20685;-74
2021/07/15 10:35:03;;;;;;;1.67;1.58;;;25.60;99.90;;;;;;5068214;28;20646;-73
2021/07/15 10:37:31;;;;;;;1.35;1.25;;;25.70;99.90;;;;;;5068562;28;20211;-73
2021/07/15 10:40:01;;;;;;;1.25;1.20;;;25.80;99.90;;;;;;5068266;28;20203;-74
2021/07/15 10:42:28;;;;;;;1.35;1.30;;;25.90;99.90;;;;;;5068447;28;20203;-73
2021/07/15 10:44:57;;;;;;;1.65;1.55;;;26.00;99.90;;;;;;5068517;28;20203;-73
2021/07/15 10:47:26;;;;;;;1.88;1.30;;;26.10;99.90;;;;;;5068101;28;20237;-73
2021/07/15 10:49:53;;;;;;;1.38;1.38;;;26.10;99.90;;;;;;5068013;28;20657;-73
2021/07/15 10:52:21;;;;;;;1.55;1.40;;;26.30;99.90;;;;;;5068212;28;20268;-73
2021/07/15 10:54:48;;;;;;;2.00;1.55;;;26.40;99.90;;;;;;5068235;28;20753;-73
2021/07/15 10:57:19;;;;;;;2.67;1.50;;;26.60;99.90;;;;;;5068435;28;20207;-73
2021/07/15 10:59:46;;;;;;;1.45;1.40;;;26.60;99.90;;;;;;5068327;28;20241;-73
2021/07/15 11:02:24;;;;;;;1.40;1.40;;;26.70;99.90;;;;;;5068207;28;20252;-73
2021/07/15 11:04:52;;;;;;;2.25;1.50;;;26.70;99.90;;;;;;5068665;28;20211;-73
2021/07/15 11:07:24;;;;;;;1.85;1.75;;;26.50;99.90;;;;;;5068213;28;20228;-73
2021/07/15 11:09:54;;;;;;;1.60;1.50;;;26.50;99.90;;;;;;5067723;28;20231;-73
2021/07/15 11:12:39;;;;;;;1.40;1.40;;;26.60;99.90;;;;;;5067917;28;20211;-73
2021/07/15 11:15:08;;;;;;;3.63;1.42;;;26.70;99.90;;;;;;5067745;28;20601;-74
2021/07/15 11:17:42;;;;;;;1.42;1.42;;;26.80;99.90;;;;;;5067991;28;20219;-73
2021/07/15 11:20:12;;;;;;;2.05;1.30;;;27.00;99.90;;;;;;5067582;28;20212;-73
2021/07/15 11:22:45;;;;;;;4.05;1.80;;;27.20;99.90;;;;;;5067371;28;20662;-74
2021/07/15 11:25:14;;;;;;;1.52;1.52;;;27.40;99.90;;;;;;5067698;28;20196;-73
2021/07/15 11:27:46;;;;;;;1.38;1.27;;;27.60;99.90;;;;;;5068565;28;20231;-73
2021/07/15 11:30:16;;;;;;;1.60;1.50;;;27.80;99.90;;;;;;5071734;28;20234;-73
2021/07/15 11:32:44;;;;;;;1.80;1.70;;;28.00;99.70;;;;;;5071430;28;20278;-73
2021/07/15 11:35:29;;;;;;;1.30;1.20;;;27.80;99.20;;;;;;5071442;28;20215;-73
2021/07/15 11:38:11;;;;;;;4.38;1.50;;;27.80;99.70;;;;;;5071290;28;20238;-73
2021/07/15 11:40:46;;;;;;;1.92;1.50;;;27.70;99.20;;;;;;5071237;28;20196;-74
2021/07/15 11:43:18;;;;;;;2.58;1.50;;;27.50;99.30;;;;;;5071409;28;20203;-74
2021/07/15 11:46:21;;;;;;;1.73;1.55;;;27.40;99.40;;;;;;5071043;28;20646;-74
2021/07/15 11:48:57;;;;;;;1.80;1.65;;;27.40;99.10;;;;;;5070739;28;20243;-74
2021/07/15 11:51:29;;;;;;;3.65;1.42;;;27.40;99.70;;;;;;5070998;28;20198;-73
2021/07/15 11:54:24;;;;;;;1.77;1.30;;;27.70;99.30;;;;;;5071351;28;20207;-74
2021/07/15 11:56:54;;;;;;;1.50;1.40;;;27.60;99.10;;;;;;5071128;28;20217;-74
2021/07/15 11:59:40;;;;;;;1.80;1.70;;;27.60;99.50;;;;;;5071337;28;20253;-74
2021/07/15 12:02:09;;;;;;;5.80;1.75;;;27.50;99.50;;;;;;5070622;28;20207;-74
2021/07/15 12:05:12;;;;;;;5.15;1.85;;;27.30;99.40;;;;;;5071054;28;20257;-74
2021/07/15 12:07:41;;;;;;;2.17;1.70;;;27.40;99.90;;;;;;5070872;28;20262;-73
2021/07/15 12:10:10;;;;;;;7.10;1.98;;;27.60;99.90;;;;;;5070583;28;20239;-74
2021/07/15 12:12:41;;;;;;;3.63;1.50;;;27.80;99.90;;;;;;5070707;28;20618;-73
2021/07/15 12:15:14;;;;;;;2.47;1.88;;;28.10;99.40;;;;;;5070931;28;20233;-73
2021/07/15 12:17:42;;;;;;;2.60;1.80;;;28.40;99.10;;;;;;5071026;28;20210;-73
2021/07/15 12:20:09;;;;;;;1.85;1.75;;;28.70;98.80;;;;;;5070959;28;20208;-73
2021/07/15 12:22:55;;;;;;;2.40;1.40;;;28.70;98.70;;;;;;5070442;28;20713;-74
2021/07/15 12:25:24;;;;;;;3.60;1.60;;;28.60;98.60;;;;;;5070637;28;20287;-73
2021/07/15 12:27:54;;;;;;;1.48;1.45;;;28.50;98.30;;;;;;5070806;28;20280;-73
2021/07/15 12:30:24;;;;;;;2.45;1.60;;;28.70;98.40;;;;;;5070613;28;20204;-74
2021/07/15 12:33:00;;;;;;;1.75;1.52;;;28.90;97.70;;;;;;5070690;28;20210;-73
2021/07/15 12:35:29;;;;;;;2.20;1.55;;;29.10;97.90;;;;;;5070594;28;20227;-73
2021/07/15 12:37:59;;;;;;;1.98;1.67;;;29.20;97.20;;;;;;5069781;28;20322;-73
2021/07/15 12:40:31;;;;;;;1.55;1.48;;;29.40;97.80;;;;;;5069367;28;20623;-74
2021/07/15 12:43:17;;;;;;;1.30;1.30;;;29.40;97.40;;;;;;5070652;28;20191;-73
2021/07/15 12:45:47;;;;;;;3.33;1.50;;;29.20;96.80;;;;;;5070206;28;20222;-74
2021/07/15 12:48:15;;;;;;;4.88;2.00;;;29.20;96.30;;;;;;5069994;28;20251;-74
2021/07/15 12:50:43;;;;;;;1.60;1.50;;;29.00;96.80;;;;;;5070059;28;20221;-73
2021/07/15 12:53:17;;;;;;;1.42;1.42;;;28.80;97.10;;;;;;5070014;28;20204;-74
2021/07/15 12:55:45;;;;;;;2.65;1.70;;;28.90;97.20;;;;;;5069867;28;20285;-74
2021/07/15 12:58:12;;;;;;;3.05;1.70;;;29.10;97.00;;;;;;5069939;28;20215;-74
2021/07/15 13:00:41;;;;;;;1.27;1.27;;;29.10;96.20;;;;;;5067884;28;20203;-73